aviador You're here:

PATL Decoded Metar

TATALINA in AK, USA
Report Time2018-02-17 23:25:00
UTC Time2018-02-17 23:40:22
Flight Rules lifr LIFR
WindCalm
Visibility2414 m
Phenomena:Light Shower Snow
Patches Mist
Clouds:Broken 002 Hf
Expected CloudBase > 400 ft AGL from Temp-Dew spread
Ceiling200 ft
Temp-7°C (ISA -20)
Dew Point-8°C (93% RH)
AAT-9.9°C
QNH1038 hPa
Density Alt-2,323 ft
Elevation965 ft
Report Wrong Elevation
Raw Report
PATL 172325Z AUTO 00000KT 1 1/2SM -SHSN BCBR BKN002 M07/M08 A3066=

Extra information for PATL:More info

Metar Taf Metar & Taf Last 4 Metars F.Rules Stats Wind Profile Meteogram Temp Stats Airport Information Weather charts Add Link Nearby VenuesMetar ALERT Operation Metar Decoded Social comments

AIRNAV info for PATL